Time;durP1;ratioP1;P1;durP2;ratioP2;P2;SDS_P1;SDS_P2;PMS_P1;PMS_P2;Temp;Humidity;BMP_temperature;BMP_pressure;BME280_temperature;BME280_humidity;BME280_pressure;Samples;Min_cycle;Max_cycle;Signal;HPM_P1;HPM_P2
2023/05/01 00:01:08;;;;;;;7.65;4.47;;;;;;;8.34;100.00;101921.63;5001779;28;20045;-74
2023/05/01 00:03:33;;;;;;;7.68;4.57;;;;;;;8.31;100.00;101919.03;5002803;28;20040;-73
2023/05/01 00:06:00;;;;;;;9.90;5.38;;;;;;;8.28;100.00;101918.19;4984571;28;21727;-74
2023/05/01 00:08:26;;;;;;;9.00;4.80;;;;;;;8.25;100.00;101918.25;5002123;28;20147;-73
2023/05/01 00:10:52;;;;;;;8.07;4.35;;;;;;;8.23;100.00;101913.91;5002286;28;20057;-73
2023/05/01 00:13:20;;;;;;;9.63;4.88;;;;;;;8.20;100.00;101919.22;5002900;28;20528;-73
2023/05/01 00:15:46;;;;;;;8.85;4.35;;;;;;;8.16;100.00;101902.59;5003028;28;20048;-73
2023/05/01 00:18:12;;;;;;;9.32;4.55;;;;;;;8.11;100.00;101905.31;5002894;28;20321;-73
2023/05/01 00:20:38;;;;;;;6.65;4.40;;;;;;;8.10;100.00;101898.31;4983721;28;20037;-73
2023/05/01 00:23:04;;;;;;;8.95;3.90;;;;;;;8.07;100.00;101897.50;4984652;28;20779;-73
2023/05/01 00:25:30;;;;;;;8.52;4.30;;;;;;;8.04;100.00;101898.41;5003476;28;20245;-72
2023/05/01 00:27:55;;;;;;;10.40;4.72;;;;;;;8.02;100.00;101895.78;5002879;28;20057;-72
2023/05/01 00:30:21;;;;;;;10.77;4.05;;;;;;;7.98;100.00;101887.97;4986277;28;20199;-73
2023/05/01 00:32:47;;;;;;;10.73;4.88;;;;;;;7.96;100.00;101895.06;4986942;28;20050;-72
2023/05/01 00:35:12;;;;;;;8.15;4.30;;;;;;;7.96;100.00;101895.91;5002985;28;20364;-72
2023/05/01 00:37:38;;;;;;;7.90;4.35;;;;;;;7.97;100.00;101895.03;4983827;28;20541;-72
2023/05/01 00:40:04;;;;;;;8.95;4.05;;;;;;;7.97;100.00;101891.50;4986196;28;20456;-73
2023/05/01 00:42:38;;;;;;;8.50;4.32;;;;;;;7.95;100.00;101886.25;5001867;28;20619;-73
2023/05/01 00:45:05;;;;;;;10.20;4.68;;;;;;;7.97;100.00;101883.59;4976350;28;20060;-73
2023/05/01 00:47:32;;;;;;;9.27;4.35;;;;;;;7.95;100.00;101880.97;5002365;28;20231;-73
2023/05/01 00:49:58;;;;;;;6.55;4.05;;;;;;;7.93;100.00;101874.88;4982207;28;20122;-73
2023/05/01 00:52:24;;;;;;;8.23;3.95;;;;;;;7.92;100.00;101877.53;4985977;28;20052;-73
2023/05/01 00:54:51;;;;;;;7.45;4.55;;;;;;;7.92;100.00;101872.25;4999919;28;20060;-73
2023/05/01 00:57:20;;;;;;;9.35;3.95;;;;;;;7.90;100.00;101868.78;5002537;28;20037;-72
2023/05/01 00:59:46;;;;;;;6.80;4.05;;;;;;;7.88;100.00;101860.91;5001037;28;20064;-72
2023/05/01 01:02:12;;;;;;;7.50;3.83;;;;;;;7.85;100.00;101858.31;4983135;28;20230;-72
2023/05/01 01:04:41;;;;;;;7.57;4.30;;;;;;;7.83;100.00;101857.47;5001856;28;20822;-72
2023/05/01 01:07:11;;;;;;;8.40;4.05;;;;;;;7.80;100.00;101847.84;4982850;28;20045;-72
2023/05/01 01:09:51;;;;;;;6.20;3.75;;;;;;;7.79;100.00;101853.16;4969461;28;20033;-72
2023/05/01 01:12:35;;;;;;;8.50;4.50;;;;;;;7.75;100.00;101847.06;5000613;28;21235;-72
2023/05/01 01:15:16;;;;;;;9.70;4.10;;;;;;;7.73;100.00;101840.94;5002181;28;20041;-72
2023/05/01 01:18:04;;;;;;;9.65;4.13;;;;;;;7.71;100.00;101834.81;4985504;28;20174;-72
2023/05/01 01:20:45;;;;;;;9.20;4.30;;;;;;;7.68;100.00;101838.38;5000806;28;20033;-72
2023/05/01 01:23:41;;;;;;;8.68;4.18;;;;;;;7.66;100.00;101832.28;5000562;28;20061;-72
2023/05/01 01:26:31;;;;;;;7.85;3.83;;;;;;;7.65;100.00;101834.94;4983700;28;20047;-72
2023/05/01 01:29:18;;;;;;;9.30;3.67;;;;;;;7.63;100.00;101824.41;5001764;28;20073;-73
2023/05/01 01:31:49;;;;;;;6.05;3.70;;;;;;;7.62;100.00;101817.41;5000246;28;20297;-72
2023/05/01 01:34:39;;;;;;;6.72;3.75;;;;;;;7.59;100.00;101817.47;5000102;28;20407;-72
2023/05/01 01:37:11;;;;;;;7.00;3.67;;;;;;;7.58;100.00;101821.00;4985913;28;20088;-72
2023/05/01 01:39:42;;;;;;;7.95;4.28;;;;;;;7.56;100.00;101813.13;5000796;28;20434;-72
2023/05/01 01:42:12;;;;;;;7.10;3.80;;;;;;;7.55;100.00;101807.88;5002056;28;20308;-72
2023/05/01 01:44:50;;;;;;;9.25;3.90;;;;;;;7.51;100.00;101808.84;4983565;28;20037;-72
2023/05/01 01:47:16;;;;;;;6.03;3.80;;;;;;;7.48;100.00;101805.34;5000195;28;20071;-72
2023/05/01 01:49:45;;;;;;;5.25;3.40;;;;;;;7.44;100.00;101786.97;4966203;28;20046;-73
2023/05/01 01:52:13;;;;;;;6.35;3.78;;;;;;;7.39;100.00;101797.59;4980051;28;20033;-73
2023/05/01 01:54:42;;;;;;;6.90;3.65;;;;;;;7.36;100.00;101789.75;4966709;28;20030;-72
2023/05/01 01:57:10;;;;;;;4.40;3.35;;;;;;;7.32;100.00;101786.28;4999224;28;20120;-72
2023/05/01 01:59:36;;;;;;;7.25;3.67;;;;;;;7.30;100.00;101779.31;4998127;28;20274;-72
2023/05/01 02:02:02;;;;;;;5.28;3.78;;;;;;;7.27;100.00;101784.63;5001226;28;20557;-72
2023/05/01 02:04:29;;;;;;;7.38;3.38;;;;;;;7.24;100.00;101776.78;4986112;28;20053;-73
2023/05/01 02:06:56;;;;;;;8.18;3.55;;;;;;;7.20;100.00;101779.44;4970508;28;20040;-73
2023/05/01 02:09:23;;;;;;;6.90;3.33;;;;;;;7.16;100.00;101775.16;4981233;28;20041;-73
2023/05/01 02:11:50;;;;;;;6.18;3.50;;;;;;;7.15;100.00;101770.75;5000887;28;20041;-73
2023/05/01 02:14:17;;;;;;;5.40;3.50;;;;;;;7.13;100.00;101761.16;4982019;28;20044;-73
2023/05/01 02:16:43;;;;;;;6.88;3.75;;;;;;;7.10;100.00;101762.06;4985742;28;20501;-73
2023/05/01 02:19:08;;;;;;;6.18;3.35;;;;;;;7.10;100.00;101755.94;4985724;28;20040;-74
2023/05/01 02:21:36;;;;;;;6.65;3.60;;;;;;;7.07;100.00;101757.72;4985830;28;20401;-74
2023/05/01 02:24:02;;;;;;;5.30;3.65;;;;;;;7.06;100.00;101755.09;4981713;28;20034;-73
2023/05/01 02:26:29;;;;;;;6.68;3.78;;;;;;;7.05;100.00;101745.47;4982964;28;20036;-73
2023/05/01 02:28:54;;;;;;;4.95;3.05;;;;;;;7.05;100.00;101748.09;4999947;28;20127;-74
2023/05/01 02:31:21;;;;;;;6.80;3.45;;;;;;;7.01;100.00;101741.13;4985010;28;20045;-73
2023/05/01 02:33:47;;;;;;;4.72;3.17;;;;;;;6.99;100.00;101732.41;5002579;28;20716;-74
2023/05/01 02:36:12;;;;;;;5.72;3.47;;;;;;;6.98;100.00;101735.94;4989524;28;20132;-73
2023/05/01 02:38:38;;;;;;;6.82;4.00;;;;;;;6.96;100.00;101737.72;5001459;28;20512;-74
2023/05/01 02:41:05;;;;;;;6.47;3.40;;;;;;;6.94;100.00;101735.13;5004900;28;20099;-74
2023/05/01 02:43:32;;;;;;;5.88;3.75;;;;;;;6.92;100.00;101737.75;4985511;28;20041;-74
2023/05/01 02:45:58;;;;;;;7.10;3.50;;;;;;;6.91;100.00;101725.50;4985753;28;20037;-74
2023/05/01 02:48:26;;;;;;;5.00;3.13;;;;;;;6.88;100.00;101720.31;4985727;28;20464;-74
2023/05/01 02:50:52;;;;;;;5.15;3.47;;;;;;;6.86;100.00;101716.81;5002153;28;20030;-74
2023/05/01 02:53:18;;;;;;;7.03;3.33;;;;;;;6.86;100.00;101713.31;4978482;28;20065;-74
2023/05/01 02:55:44;;;;;;;8.73;3.55;;;;;;;6.85;100.00;101714.19;4979609;28;20491;-74
2023/05/01 02:58:17;;;;;;;6.10;3.22;;;;;;;6.83;100.00;101708.97;5004720;28;20693;-74
2023/05/01 03:00:43;;;;;;;4.97;2.95;;;;;;;6.82;100.00;101703.72;5002270;28;20061;-72
2023/05/01 03:03:09;;;;;;;5.72;3.22;;;;;;;6.81;100.00;101697.56;4977929;28;20128;-73
2023/05/01 03:05:35;;;;;;;6.68;3.40;;;;;;;6.82;100.00;101703.72;4988777;28;20038;-72
2023/05/01 03:08:00;;;;;;;6.03;3.80;;;;;;;6.81;100.00;101702.84;5005071;28;20073;-73
2023/05/01 03:10:26;;;;;;;8.82;3.38;;;;;;;6.80;100.00;101701.09;5002662;28;20444;-73
2023/05/01 03:12:51;;;;;;;7.88;3.55;;;;;;;6.77;100.00;101695.91;5002850;28;20054;-72
2023/05/01 03:15:17;;;;;;;5.82;3.33;;;;;;;6.76;100.00;101689.75;5002246;28;20060;-72
2023/05/01 03:17:43;;;;;;;5.93;3.13;;;;;;;6.74;100.00;101691.53;5003182;28;20045;-72
2023/05/01 03:20:09;;;;;;;6.38;3.03;;;;;;;6.74;100.00;101694.19;5003097;28;20037;-72
2023/05/01 03:22:35;;;;;;;8.18;3.47;;;;;;;6.72;100.00;101680.19;5002889;28;20033;-73
2023/05/01 03:25:03;;;;;;;5.80;3.50;;;;;;;6.72;100.00;101676.66;5003035;28;20041;-73
2023/05/01 03:27:29;;;;;;;5.93;3.20;;;;;;;6.71;100.00;101677.56;4987526;28;20026;-73
2023/05/01 03:29:55;;;;;;;4.75;3.40;;;;;;;6.70;100.00;101673.19;4986772;28;20526;-73
2023/05/01 03:32:21;;;;;;;7.13;3.63;;;;;;;6.70;100.00;101678.47;4985263;28;20970;-73
2023/05/01 03:34:47;;;;;;;9.57;3.83;;;;;;;6.66;100.00;101667.97;4984660;28;20045;-74
2023/05/01 03:37:13;;;;;;;5.93;3.35;;;;;;;6.66;100.00;101661.84;5004833;28;20033;-74
2023/05/01 03:39:38;;;;;;;5.20;3.13;;;;;;;6.63;100.00;101662.78;4986960;28;20112;-73
2023/05/01 03:42:04;;;;;;;6.13;3.15;;;;;;;6.62;100.00;101658.41;4987708;28;20041;-73
2023/05/01 03:44:30;;;;;;;6.40;3.80;;;;;;;6.60;100.00;101660.19;5003378;28;20061;-74
2023/05/01 03:46:55;;;;;;;5.65;3.20;;;;;;;6.59;100.00;101666.34;5003451;28;20123;-73
2023/05/01 03:49:21;;;;;;;6.45;3.80;;;;;;;6.59;100.00;101655.81;5003677;28;20044;-73
2023/05/01 03:51:47;;;;;;;5.75;3.47;;;;;;;6.60;100.00;101656.69;5003791;28;20276;-74
2023/05/01 03:54:12;;;;;;;7.85;3.80;;;;;;;6.61;100.00;101659.31;5003057;28;20084;-73
2023/05/01 03:56:38;;;;;;;7.28;3.83;;;;;;;6.61;100.00;101648.78;4988249;28;20042;-73
2023/05/01 03:59:03;;;;;;;6.75;3.70;;;;;;;6.62;100.00;101650.50;5003951;28;20146;-73
2023/05/01 04:01:32;;;;;;;6.13;4.15;;;;;;;6.62;100.00;101654.91;4983555;28;20076;-73
2023/05/01 04:03:58;;;;;;;7.28;3.85;;;;;;;6.62;100.00;101650.50;5003315;28;20559;-74
2023/05/01 04:06:24;;;;;;;6.80;4.05;;;;;;;6.63;100.00;101641.72;5002314;28;20156;-73
2023/05/01 04:08:50;;;;;;;8.43;4.20;;;;;;;6.62;100.00;101642.63;5002671;28;20041;-73
2023/05/01 04:11:16;;;;;;;7.85;4.32;;;;;;;6.63;100.00;101635.56;5002982;28;20527;-73
2023/05/01 04:13:41;;;;;;;7.07;3.90;;;;;;;6.63;100.00;101636.47;4984075;28;20367;-73
2023/05/01 04:16:07;;;;;;;7.25;4.10;;;;;;;6.64;100.00;101637.31;5001329;28;20033;-72
2023/05/01 04:18:32;;;;;;;8.15;3.72;;;;;;;6.66;100.00;101640.81;4987896;28;20041;-72
2023/05/01 04:20:58;;;;;;;9.40;3.92;;;;;;;6.67;100.00;101637.28;5002243;28;20052;-72
2023/05/01 04:23:23;;;;;;;7.97;3.95;;;;;;;6.69;100.00;101634.63;5001048;28;20063;-73
2023/05/01 04:25:48;;;;;;;7.95;3.90;;;;;;;6.71;100.00;101628.41;4983979;28;20435;-73
2023/05/01 04:28:14;;;;;;;7.68;4.40;;;;;;;6.74;100.00;101632.75;4987026;28;20152;-72
2023/05/01 04:30:40;;;;;;;6.85;4.10;;;;;;;6.74;100.00;101628.38;5001682;28;20128;-72
2023/05/01 04:33:10;;;;;;;6.35;3.72;;;;;;;6.76;100.00;101631.84;4987286;28;20077;-72
2023/05/01 04:35:39;;;;;;;8.18;3.60;;;;;;;6.76;100.00;101626.59;4976157;28;20143;-72
2023/05/01 04:38:05;;;;;;;7.07;3.92;;;;;;;6.79;100.00;101623.03;4986745;28;20112;-72
2023/05/01 04:40:31;;;;;;;6.75;3.97;;;;;;;6.79;100.00;101620.41;4986710;28;21696;-73
2023/05/01 04:42:56;;;;;;;8.90;3.85;;;;;;;6.80;100.00;101622.13;4986331;28;20053;-72
2023/05/01 04:45:22;;;;;;;7.55;3.80;;;;;;;6.84;100.00;101621.19;5001377;28;20048;-72
2023/05/01 04:47:47;;;;;;;9.52;4.22;;;;;;;6.87;100.00;101623.75;4986107;28;20847;-72
2023/05/01 04:50:13;;;;;;;8.63;4.22;;;;;;;6.88;100.00;101625.53;4986919;28;20084;-72
2023/05/01 04:52:38;;;;;;;8.65;4.38;;;;;;;6.92;100.00;101615.81;5002319;28;20045;-73
2023/05/01 04:55:05;;;;;;;6.90;3.85;;;;;;;6.95;100.00;101614.84;5000112;28;20084;-72
2023/05/01 04:57:30;;;;;;;10.40;4.20;;;;;;;6.96;100.00;101609.56;5002417;28;20050;-72
2023/05/01 04:59:56;;;;;;;7.63;4.13;;;;;;;7.00;100.00;101608.63;5000552;28;20546;-73
2023/05/01 05:02:21;;;;;;;6.82;3.70;;;;;;;7.02;100.00;101613.84;5000482;28;20061;-73
2023/05/01 05:04:47;;;;;;;7.95;4.10;;;;;;;7.06;100.00;101618.19;5000927;28;20045;-73
2023/05/01 05:07:12;;;;;;;7.60;4.50;;;;;;;7.09;100.00;101618.13;5002099;28;20156;-74
2023/05/01 05:09:38;;;;;;;6.45;3.90;;;;;;;7.13;100.00;101619.81;5002673;28;20030;-73
2023/05/01 05:12:04;;;;;;;8.05;4.50;;;;;;;7.15;100.00;101625.91;5001602;28;20034;-73
2023/05/01 05:14:30;;;;;;;6.00;3.70;;;;;;;7.18;100.00;101612.69;5001550;28;20072;-73
2023/05/01 05:16:55;;;;;;;6.40;3.92;;;;;;;7.22;100.00;101617.88;5001785;28;20045;-73
2023/05/01 05:19:21;;;;;;;8.63;3.97;;;;;;;7.25;100.00;101612.56;4970093;28;20039;-73
2023/05/01 05:21:46;;;;;;;7.05;3.92;;;;;;;7.28;100.00;101612.50;4970082;28;20147;-73
2023/05/01 05:24:12;;;;;;;6.53;4.03;;;;;;;7.30;100.00;101608.09;4969258;28;20163;-73
2023/05/01 05:26:38;;;;;;;6.93;4.10;;;;;;;7.33;100.00;101615.94;5001568;28;20146;-73
2023/05/01 05:29:03;;;;;;;8.57;4.28;;;;;;;7.37;100.00;101611.47;4998607;28;20512;-73
2023/05/01 05:31:29;;;;;;;6.32;3.53;;;;;;;7.40;100.00;101612.28;5001791;28;20465;-73
2023/05/01 05:33:54;;;;;;;8.57;4.40;;;;;;;7.42;100.00;101613.09;5001170;28;20523;-72
2023/05/01 05:36:20;;;;;;;6.85;4.32;;;;;;;7.46;100.00;101609.50;5002585;28;20072;-72
2023/05/01 05:38:46;;;;;;;6.80;4.15;;;;;;;7.49;100.00;101608.59;4966965;28;20567;-72
2023/05/01 05:41:11;;;;;;;5.63;3.70;;;;;;;7.53;100.00;101614.66;5000736;28;20120;-72
2023/05/01 05:43:37;;;;;;;6.50;3.72;;;;;;;7.56;100.00;101610.19;5002145;28;20489;-73
2023/05/01 05:46:03;;;;;;;8.15;4.05;;;;;;;7.58;100.00;101605.75;5000463;28;21275;-72
2023/05/01 05:48:28;;;;;;;7.00;4.25;;;;;;;7.61;100.00;101610.09;5001074;28;20552;-72
2023/05/01 05:50:54;;;;;;;6.13;4.28;;;;;;;7.66;100.00;101613.50;4985511;28;20040;-73
2023/05/01 05:53:19;;;;;;;9.32;4.30;;;;;;;7.68;100.00;101606.44;4999636;28;20171;-73
2023/05/01 05:55:48;;;;;;;8.05;3.75;;;;;;;7.72;100.00;101602.84;4982781;28;20040;-73
2023/05/01 05:58:18;;;;;;;8.45;4.80;;;;;;;7.79;100.00;101602.72;4981719;28;20083;-72
2023/05/01 06:00:48;;;;;;;8.20;4.28;;;;;;;7.85;100.00;101595.53;4999479;28;20041;-73
2023/05/01 06:03:13;;;;;;;9.02;4.15;;;;;;;7.93;100.00;101605.91;4998551;28;20048;-73
2023/05/01 06:05:39;;;;;;;6.18;4.00;;;;;;;8.02;100.00;101591.66;4988044;28;20050;-72
2023/05/01 06:08:05;;;;;;;5.38;3.75;;;;;;;8.12;100.00;101595.81;5005306;28;21065;-72
2023/05/01 06:10:30;;;;;;;8.45;4.20;;;;;;;8.23;100.00;101590.28;5004369;28;20051;-72
2023/05/01 06:12:56;;;;;;;7.82;4.00;;;;;;;8.35;100.00;101591.78;5004321;28;21659;-72
2023/05/01 06:15:23;;;;;;;11.77;4.75;;;;;;;8.49;100.00;101588.78;5004435;28;20053;-72
2023/05/01 06:17:49;;;;;;;8.57;4.68;;;;;;;8.62;100.00;101585.88;5004731;28;20037;-72
2023/05/01 06:20:15;;;;;;;6.40;4.18;;;;;;;8.74;100.00;101587.31;4989115;28;20095;-72
2023/05/01 06:22:40;;;;;;;7.55;4.05;;;;;;;8.87;100.00;101587.88;4989025;28;21574;-73
2023/05/01 06:25:07;;;;;;;7.47;3.95;;;;;;;8.99;100.00;101587.53;5003900;28;20065;-72
2023/05/01 06:27:32;;;;;;;7.47;3.95;;;;;;;9.15;100.00;101582.69;4987313;28;20076;-72
2023/05/01 06:29:58;;;;;;;6.88;4.00;;;;;;;9.29;100.00;101584.97;4969086;28;20037;-72
2023/05/01 06:32:23;;;;;;;8.13;4.20;;;;;;;9.41;100.00;101586.41;4969523;28;20048;-72
2023/05/01 06:34:49;;;;;;;8.25;4.40;;;;;;;9.56;100.00;101589.50;5003570;28;20042;-72
2023/05/01 06:37:14;;;;;;;5.95;3.83;;;;;;;9.69;100.00;101587.38;5005391;28;20045;-72
2023/05/01 06:39:40;;;;;;;6.72;3.67;;;;;;;9.75;100.00;101587.19;5003398;28;20037;-72
2023/05/01 06:42:06;;;;;;;6.78;4.20;;;;;;;9.78;100.00;101587.09;5002453;28;20085;-73
2023/05/01 06:44:32;;;;;;;6.85;4.20;;;;;;;9.88;100.00;101582.38;4989806;28;20044;-73
2023/05/01 06:47:00;;;;;;;6.38;3.75;;;;;;;9.98;100.00;101588.25;4970961;28;20042;-73
2023/05/01 06:49:26;;;;;;;9.70;4.70;;;;;;;10.11;100.00;101584.31;4988050;28;20512;-72
2023/05/01 06:51:52;;;;;;;5.70;3.85;;;;;;;10.30;100.00;101579.28;4984952;28;20037;-73
2023/05/01 06:54:17;;;;;;;8.00;4.28;;;;;;;10.48;100.00;101584.06;5003153;28;20037;-73
2023/05/01 06:56:43;;;;;;;11.05;4.10;;;;;;;10.65;100.00;101579.09;5004285;28;20175;-73
2023/05/01 06:59:11;;;;;;;6.97;3.85;;;;;;;10.86;100.00;101577.47;4988909;28;20491;-73
2023/05/01 07:01:36;;;;;;;6.53;4.63;;;;;;;11.09;100.00;101572.25;5002519;28;20026;-73
2023/05/01 07:04:02;;;;;;;6.20;3.95;;;;;;;11.32;100.00;101565.28;4971795;28;20551;-73
2023/05/01 07:06:28;;;;;;;6.50;3.58;;;;;;;11.50;100.00;101569.88;5003150;28;20057;-73
2023/05/01 07:08:54;;;;;;;8.20;4.43;;;;;;;11.67;100.00;101568.38;5001221;28;20156;-73
2023/05/01 07:11:19;;;;;;;7.22;3.90;;;;;;;11.91;100.00;101570.97;5004011;28;20053;-73
2023/05/01 07:13:45;;;;;;;5.82;3.63;;;;;;;12.07;100.00;101574.81;5001544;28;20042;-73
2023/05/01 07:16:10;;;;;;;5.03;3.58;;;;;;;12.20;100.00;101567.19;4988253;28;20057;-73
2023/05/01 07:18:36;;;;;;;6.30;4.18;;;;;;;12.31;100.00;101569.41;4992989;28;20572;-73
2023/05/01 07:21:02;;;;;;;6.88;4.03;;;;;;;12.45;100.00;101562.66;5002319;28;20107;-73
2023/05/01 07:23:28;;;;;;;6.65;3.80;;;;;;;12.52;100.00;101563.28;5004376;28;20099;-73
2023/05/01 07:25:53;;;;;;;7.78;4.07;;;;;;;12.55;100.00;101568.44;4988403;28;20307;-73
2023/05/01 07:28:20;;;;;;;5.63;3.80;;;;;;;12.62;100.00;101575.22;5003600;28;20140;-73
2023/05/01 07:30:46;;;;;;;5.57;3.50;;;;;;;12.73;100.00;101570.34;4986563;28;20045;-72
2023/05/01 07:33:11;;;;;;;7.03;3.80;;;;;;;12.83;100.00;101560.16;4985207;28;21991;-73
2023/05/01 07:35:37;;;;;;;7.13;3.67;;;;;;;12.89;100.00;101565.22;5003364;28;20037;-73
2023/05/01 07:38:03;;;;;;;9.95;4.05;;;;;;;12.97;100.00;101556.88;5003965;28;20042;-74
2023/05/01 07:40:28;;;;;;;6.90;3.95;;;;;;;13.04;100.00;101565.47;5003063;28;20048;-73
2023/05/01 07:42:54;;;;;;;5.60;3.88;;;;;;;13.09;100.00;101568.78;4984561;28;20448;-73
2023/05/01 07:45:22;;;;;;;5.90;3.58;;;;;;;13.17;100.00;101571.09;4983612;28;20501;-76
2023/05/01 07:47:48;;;;;;;6.47;3.90;;;;;;;13.25;100.00;101568.09;5001458;28;20044;-73
2023/05/01 07:50:14;;;;;;;8.40;3.75;;;;;;;13.30;100.00;101568.75;4983584;28;20116;-74
2023/05/01 07:52:39;;;;;;;5.22;3.63;;;;;;;13.30;100.00;101555.47;4966868;28;20034;-73
2023/05/01 07:55:06;;;;;;;6.05;3.85;;;;;;;13.34;100.00;101562.34;5000975;28;20104;-74
2023/05/01 07:57:34;;;;;;;5.60;3.50;;;;;;;13.48;100.00;101566.19;5003396;28;20833;-74
2023/05/01 07:59:59;;;;;;;6.70;3.65;;;;;;;13.63;100.00;101559.31;4983916;28;20037;-74
2023/05/01 08:02:25;;;;;;;6.75;3.63;;;;;;;13.77;100.00;101561.34;4999569;28;20503;-75
2023/05/01 08:04:51;;;;;;;6.45;3.83;;;;;;;13.95;100.00;101557.75;5001772;28;20037;-75
2023/05/01 08:07:17;;;;;;;4.85;3.75;;;;;;;14.05;100.00;101562.66;5002890;28;20076;-75
2023/05/01 08:09:42;;;;;;;7.80;4.00;;;;;;;14.16;100.00;101562.97;5000852;28;21935;-75
2023/05/01 08:12:08;;;;;;;5.95;3.78;;;;;;;14.27;100.00;101554.47;4979169;28;20081;-74
2023/05/01 08:14:33;;;;;;;6.30;4.00;;;;;;;14.39;100.00;101553.84;4998627;28;20180;-73
2023/05/01 08:16:59;;;;;;;7.20;3.40;;;;;;;14.52;100.00;101559.44;4998791;28;20041;-74
2023/05/01 08:19:25;;;;;;;5.43;3.60;;;;;;;14.65;100.00;101558.78;4992976;28;20053;-73
2023/05/01 08:21:52;;;;;;;6.38;3.67;;;;;;;14.80;100.00;101544.72;4965595;28;20033;-73
2023/05/01 08:24:17;;;;;;;5.18;3.17;;;;;;;14.89;100.00;101545.16;4995022;28;20069;-73
2023/05/01 08:26:43;;;;;;;5.53;3.20;;;;;;;14.97;100.00;101553.63;4976004;28;20457;-73
2023/05/01 08:29:09;;;;;;;6.93;3.70;;;;;;;15.04;100.00;101547.00;4977827;28;20041;-75
2023/05/01 08:31:36;;;;;;;7.97;3.60;;;;;;;15.09;100.00;101540.59;4976944;28;20057;-77
2023/05/01 08:34:04;;;;;;;5.40;3.50;;;;;;;15.13;99.60;101534.13;4995937;28;20061;-76
2023/05/01 08:36:31;;;;;;;27.92;6.35;;;;;;;15.17;99.27;101541.03;4975178;28;20108;-77
2023/05/01 08:38:57;;;;;;;21.40;4.97;;;;;;;15.24;98.32;101539.75;4978073;28;20037;-78
2023/05/01 08:41:24;;;;;;;27.85;5.07;;;;;;;15.28;97.52;101537.78;4978998;28;20042;-77
2023/05/01 08:43:50;;;;;;;41.58;6.35;;;;;;;15.30;96.01;101543.88;4981677;28;20587;-77
2023/05/01 08:46:31;;;;;;;5.50;3.28;;;;;;;15.38;90.95;101541.69;4995019;28;20087;-76
2023/05/01 08:48:58;;;;;;;4.82;3.28;;;;;;;15.58;94.04;101543.22;4988833;28;20044;-80
2023/05/01 08:51:24;;;;;;;7.47;3.17;;;;;;;15.77;94.35;101550.22;4985256;28;20034;-77
2023/05/01 08:53:51;;;;;;;6.00;3.00;;;;;;;15.99;95.13;101551.69;4999571;28;20744;-78
2023/05/01 08:56:18;;;;;;;3.45;2.67;;;;;;;16.18;83.33;101554.16;4964125;28;20029;-79
2023/05/01 08:58:46;;;;;;;5.32;2.50;;;;;;;16.34;82.78;101550.59;4997916;28;20083;-78
2023/05/01 09:01:16;;;;;;;4.47;2.42;;;;;;;16.46;86.41;101544.53;4996670;28;20170;-77
2023/05/01 09:03:43;;;;;;;3.65;2.60;;;;;;;16.48;83.27;101547.09;4982788;28;20092;-76
2023/05/01 09:06:10;;;;;;;3.70;2.70;;;;;;;16.56;85.65;101550.19;4991915;28;20481;-76
2023/05/01 09:08:36;;;;;;;4.53;3.08;;;;;;;16.61;85.41;101553.44;4995980;28;20163;-77
2023/05/01 09:11:02;;;;;;;4.38;2.55;;;;;;;16.59;84.60;101547.34;5000447;28;20072;-73
2023/05/01 09:13:29;;;;;;;4.35;2.30;;;;;;;16.61;84.59;101547.25;4979778;28;20546;-73
2023/05/01 09:15:55;;;;;;;4.65;1.90;;;;;;;16.65;84.80;101535.41;4977008;28;20113;-73
2023/05/01 09:18:21;;;;;;;2.08;1.40;;;;;;;16.70;77.02;101536.88;4962949;28;20040;-73
2023/05/01 09:20:46;;;;;;;2.17;1.80;;;;;;;16.78;79.50;101544.41;4978106;28;20065;-74
2023/05/01 09:23:12;;;;;;;2.40;1.75;;;;;;;16.86;80.08;101537.72;4976543;28;20038;-77
2023/05/01 09:25:38;;;;;;;5.05;1.92;;;;;;;16.86;79.67;101540.41;4990361;28;21007;-77
2023/05/01 09:28:05;;;;;;;3.60;1.58;;;;;;;16.86;81.06;101546.63;4971856;28;20250;-77
2023/05/01 09:30:36;;;;;;;4.28;2.03;;;;;;;16.85;79.87;101539.56;4956713;28;20041;-77
2023/05/01 09:33:12;;;;;;;2.85;1.70;;;;;;;16.85;78.09;101544.91;4958891;28;20297;-76
2023/05/01 09:35:50;;;;;;;4.43;2.05;;;;;;;16.90;77.20;101537.47;4974848;28;20054;-76
2023/05/01 09:38:26;;;;;;;2.28;1.80;;;;;;;16.94;77.74;101548.84;4972783;28;20033;-76
2023/05/01 09:40:55;;;;;;;3.17;1.83;;;;;;;17.00;76.66;101548.44;4975058;28;20038;-78
2023/05/01 09:43:28;;;;;;;3.05;1.63;;;;;;;17.11;74.22;101550.50;4972814;28;20042;-79
2023/05/01 09:46:10;;;;;;;1.88;1.60;;;;;;;17.19;75.33;101545.53;4987588;28;20076;-77
2023/05/01 09:48:36;;;;;;;2.22;1.60;;;;;;;17.22;74.14;101547.16;4958844;28;20072;-77
2023/05/01 09:51:32;;;;;;;3.47;2.22;;;;;;;17.26;69.20;101550.50;4975865;28;20545;-77
2023/05/01 09:54:00;;;;;;;3.00;1.50;;;;;;;17.28;71.90;101546.78;4956366;28;20072;-77
2023/05/01 09:56:27;;;;;;;2.38;1.33;;;;;;;17.36;72.75;101548.94;4970741;28;20482;-77
2023/05/01 09:58:54;;;;;;;4.60;1.50;;;;;;;17.42;71.04;101547.72;4954924;28;20658;-78
2023/05/01 10:01:39;;;;;;;2.83;1.77;;;;;;;17.41;67.84;101544.16;4973927;28;20576;-77
2023/05/01 10:04:06;;;;;;;1.80;1.52;;;;;;;17.45;72.76;101543.03;4971923;28;20038;-78
2023/05/01 10:06:31;;;;;;;5.72;1.67;;;;;;;17.40;72.13;101539.78;4973440;28;20045;-77
2023/05/01 10:08:57;;;;;;;3.90;1.60;;;;;;;17.37;70.39;101539.94;4971709;28;20085;-76
2023/05/01 10:11:23;;;;;;;3.75;1.92;;;;;;;17.38;71.76;101541.69;4969404;28;20065;-78
2023/05/01 10:14:19;;;;;;;3.08;1.45;;;;;;;17.32;69.20;101532.22;4972526;28;20040;-78
2023/05/01 10:16:45;;;;;;;2.58;1.52;;;;;;;17.34;71.96;101537.47;4941387;28;20380;-76
2023/05/01 10:19:12;;;;;;;2.90;1.60;;;;;;;17.36;70.40;101539.09;4970914;28;20123;-73
2023/05/01 10:21:37;;;;;;;2.38;1.42;;;;;;;17.38;72.11;101531.84;4987260;28;22070;-73
2023/05/01 10:24:04;;;;;;;2.97;1.85;;;;;;;17.43;71.48;101533.38;4973894;28;20042;-76
2023/05/01 10:26:32;;;;;;;2.35;1.52;;;;;;;17.36;71.05;101530.22;4988560;28;20102;-76
2023/05/01 10:29:01;;;;;;;3.05;1.63;;;;;;;17.34;69.42;101529.47;4976329;28;20038;-76
2023/05/01 10:31:28;;;;;;;2.45;1.30;;;;;;;17.27;70.46;101534.31;4974170;28;20042;-76
2023/05/01 10:33:55;;;;;;;4.20;1.55;;;;;;;17.33;71.46;101536.59;4975193;28;20072;-76
2023/05/01 10:36:33;;;;;;;4.15;1.80;;;;;;;17.36;69.54;101538.25;4974871;28;20298;-76
2023/05/01 10:38:59;;;;;;;4.57;1.65;;;;;;;17.35;70.52;101531.16;4954662;28;20042;-76
2023/05/01 10:41:53;;;;;;;2.10;1.40;;;;;;;17.30;67.53;101538.63;4967972;28;20037;-76
2023/05/01 10:44:20;;;;;;;1.77;1.40;;;;;;;17.26;70.33;101529.94;4974468;28;20057;-77
2023/05/01 10:46:46;;;;;;;1.70;1.60;;;;;;;17.18;69.12;101538.47;4973591;28;20042;-76
2023/05/01 10:49:11;;;;;;;2.90;1.50;;;;;;;17.08;70.62;101539.97;4972547;28;20415;-76
2023/05/01 10:52:05;;;;;;;2.08;1.50;;;;;;;16.96;68.61;101526.34;4990888;28;20664;-75
2023/05/01 10:54:32;;;;;;;2.72;1.50;;;;;;;16.92;71.51;101540.03;4976955;28;20030;-75
2023/05/01 10:57:00;;;;;;;4.72;1.70;;;;;;;16.87;71.39;101542.13;4975972;28;20591;-75
2023/05/01 10:59:27;;;;;;;3.33;1.50;;;;;;;16.79;71.21;101535.41;4975121;28;20041;-76
2023/05/01 11:01:53;;;;;;;3.78;1.85;;;;;;;16.70;72.39;101530.66;4979186;28;20129;-89
2023/05/01 11:04:25;;;;;;;2.20;1.50;;;;;;;16.65;71.94;101533.59;4994094;28;20125;-80
2023/05/01 11:07:09;;;;;;;4.97;1.67;;;;;;;16.61;69.91;101533.88;4975142;28;20497;-77
2023/05/01 11:09:41;;;;;;;2.70;1.80;;;;;;;16.63;72.44;101534.66;4976481;28;20030;-75
2023/05/01 11:12:08;;;;;;;2.15;1.60;;;;;;;16.62;72.32;101533.78;4975958;28;20033;-75
2023/05/01 11:14:52;;;;;;;2.20;1.60;;;;;;;16.61;70.62;101529.38;4964893;28;20054;-76
2023/05/01 11:17:42;;;;;;;2.83;1.75;;;;;;;16.58;70.05;101536.72;4997775;28;20120;-76
2023/05/01 11:20:13;;;;;;;3.40;1.67;;;;;;;16.56;72.66;101532.34;4998138;28;20057;-75
2023/05/01 11:22:45;;;;;;;4.60;1.75;;;;;;;16.54;70.86;101536.91;4981163;28;20051;-75
2023/05/01 11:25:21;;;;;;;3.78;1.42;;;;;;;16.41;69.40;101531.44;4980137;28;20048;-77
2023/05/01 11:29:38;;;;;;;1.42;1.25;;;;;;;16.21;72.65;101534.41;5033639;27;20609;-75